sensor_id;sensor_type;location;lat;lon;timestamp;temperature;humidity
64961;SHT31;51487;52.266;10.542;2023-06-10T00:01:37;16.84;71.75
64961;SHT31;51487;52.266;10.542;2023-06-10T00:04:03;16.84;72.36
64961;SHT31;51487;52.266;10.542;2023-06-10T00:06:30;16.63;73.22
64961;SHT31;51487;52.266;10.542;2023-06-10T00:09:05;16.56;73.80
64961;SHT31;51487;52.266;10.542;2023-06-10T00:11:32;16.55;74.11
64961;SHT31;51487;52.266;10.542;2023-06-10T00:13:58;16.53;74.46
64961;SHT31;51487;52.266;10.542;2023-06-10T00:16:23;16.40;75.05
64961;SHT31;51487;52.266;10.542;2023-06-10T00:18:49;16.45;75.28
64961;SHT31;51487;52.266;10.542;2023-06-10T00:21:17;16.34;75.64
64961;SHT31;51487;52.266;10.542;2023-06-10T00:23:43;16.25;76.27
64961;SHT31;51487;52.266;10.542;2023-06-10T00:26:09;16.30;76.34
64961;SHT31;51487;52.266;10.542;2023-06-10T00:28:35;16.29;76.55
64961;SHT31;51487;52.266;10.542;2023-06-10T00:31:01;16.15;77.29
64961;SHT31;51487;52.266;10.542;2023-06-10T00:33:27;16.09;77.68
64961;SHT31;51487;52.266;10.542;2023-06-10T00:35:53;16.02;78.17
64961;SHT31;51487;52.266;10.542;2023-06-10T00:38:18;15.97;78.46
64961;SHT31;51487;52.266;10.542;2023-06-10T00:40:44;15.88;78.93
64961;SHT31;51487;52.266;10.542;2023-06-10T00:43:09;15.80;79.43
64961;SHT31;51487;52.266;10.542;2023-06-10T00:45:35;15.78;79.54
64961;SHT31;51487;52.266;10.542;2023-06-10T00:48:01;15.74;80.07
64961;SHT31;51487;52.266;10.542;2023-06-10T00:50:27;15.77;80.20
64961;SHT31;51487;52.266;10.542;2023-06-10T00:52:54;15.67;80.57
64961;SHT31;51487;52.266;10.542;2023-06-10T00:55:21;15.65;81.02
64961;SHT31;51487;52.266;10.542;2023-06-10T00:57:47;15.63;81.50
64961;SHT31;51487;52.266;10.542;2023-06-10T01:00:17;15.51;82.19
64961;SHT31;51487;52.266;10.542;2023-06-10T01:02:42;15.57;82.35
64961;SHT31;51487;52.266;10.542;2023-06-10T01:05:09;15.46;82.89
64961;SHT31;51487;52.266;10.542;2023-06-10T01:07:47;15.36;83.32
64961;SHT31;51487;52.266;10.542;2023-06-10T01:10:32;15.29;83.72
64961;SHT31;51487;52.266;10.542;2023-06-10T01:13:01;15.33;83.74
64961;SHT31;51487;52.266;10.542;2023-06-10T01:15:34;15.27;84.11
64961;SHT31;51487;52.266;10.542;2023-06-10T01:18:02;15.26;84.20
64961;SHT31;51487;52.266;10.542;2023-06-10T01:20:30;15.26;84.43
64961;SHT31;51487;52.266;10.542;2023-06-10T01:22:59;15.07;85.17
64961;SHT31;51487;52.266;10.542;2023-06-10T01:25:26;15.12;85.21
64961;SHT31;51487;52.266;10.542;2023-06-10T01:33:47;14.86;86.35
64961;SHT31;51487;52.266;10.542;2023-06-10T01:36:16;14.82;86.70
64961;SHT31;51487;52.266;10.542;2023-06-10T01:38:45;14.78;86.81
64961;SHT31;51487;52.266;10.542;2023-06-10T01:41:14;14.78;87.01
64961;SHT31;51487;52.266;10.542;2023-06-10T01:43:43;14.78;87.28
64961;SHT31;51487;52.266;10.542;2023-06-10T01:46:10;14.71;87.55
64961;SHT31;51487;52.266;10.542;2023-06-10T01:48:38;14.64;88.12
64961;SHT31;51487;52.266;10.542;2023-06-10T01:51:04;14.61;88.50
64961;SHT31;51487;52.266;10.542;2023-06-10T01:53:29;14.54;88.74
64961;SHT31;51487;52.266;10.542;2023-06-10T01:55:55;14.45;89.21
64961;SHT31;51487;52.266;10.542;2023-06-10T01:58:21;14.42;89.45
64961;SHT31;51487;52.266;10.542;2023-06-10T02:00:47;14.42;89.74
64961;SHT31;51487;52.266;10.542;2023-06-10T02:03:12;14.38;89.79
64961;SHT31;51487;52.266;10.542;2023-06-10T02:05:38;14.33;90.10
64961;SHT31;51487;52.266;10.542;2023-06-10T02:08:04;14.21;90.61
64961;SHT31;51487;52.266;10.542;2023-06-10T02:10:30;14.17;90.84
64961;SHT31;51487;52.266;10.542;2023-06-10T02:12:55;14.07;91.22
64961;SHT31;51487;52.266;10.542;2023-06-10T02:15:21;13.99;91.64
64961;SHT31;51487;52.266;10.542;2023-06-10T02:17:46;14.00;91.68
64961;SHT31;51487;52.266;10.542;2023-06-10T02:20:14;14.02;91.64
64961;SHT31;51487;52.266;10.542;2023-06-10T02:22:40;14.05;91.33
64961;SHT31;51487;52.266;10.542;2023-06-10T02:25:06;14.10;91.31
64961;SHT31;51487;52.266;10.542;2023-06-10T02:27:31;14.09;91.29
64961;SHT31;51487;52.266;10.542;2023-06-10T02:29:57;14.00;91.34
64961;SHT31;51487;52.266;10.542;2023-06-10T02:32:23;14.00;91.48
64961;SHT31;51487;52.266;10.542;2023-06-10T02:34:49;13.97;91.63
64961;SHT31;51487;52.266;10.542;2023-06-10T02:37:15;13.87;91.99
64961;SHT31;51487;52.266;10.542;2023-06-10T02:39:41;13.89;92.00
64961;SHT31;51487;52.266;10.542;2023-06-10T02:42:07;13.91;92.02
64961;SHT31;51487;52.266;10.542;2023-06-10T02:44:33;13.82;92.34
64961;SHT31;51487;52.266;10.542;2023-06-10T02:46:58;13.75;92.53
64961;SHT31;51487;52.266;10.542;2023-06-10T02:49:24;13.76;92.61
64961;SHT31;51487;52.266;10.542;2023-06-10T02:51:50;13.75;92.54
64961;SHT31;51487;52.266;10.542;2023-06-10T02:54:19;13.77;92.57
64961;SHT31;51487;52.266;10.542;2023-06-10T02:56:45;13.66;92.89
64961;SHT31;51487;52.266;10.542;2023-06-10T02:59:14;13.63;93.16
64961;SHT31;51487;52.266;10.542;2023-06-10T03:01:40;13.67;92.96
64961;SHT31;51487;52.266;10.542;2023-06-10T03:04:06;13.67;93.13
64961;SHT31;51487;52.266;10.542;2023-06-10T03:06:32;13.79;92.83
64961;SHT31;51487;52.266;10.542;2023-06-10T03:09:02;13.82;92.45
64961;SHT31;51487;52.266;10.542;2023-06-10T03:11:30;13.75;92.80
64961;SHT31;51487;52.266;10.542;2023-06-10T03:13:56;13.73;92.77
64961;SHT31;51487;52.266;10.542;2023-06-10T03:16:22;13.77;92.78
64961;SHT31;51487;52.266;10.542;2023-06-10T03:18:49;13.77;92.54
64961;SHT31;51487;52.266;10.542;2023-06-10T03:21:14;13.83;92.41
64961;SHT31;51487;52.266;10.542;2023-06-10T03:23:40;13.70;92.81
64961;SHT31;51487;52.266;10.542;2023-06-10T03:26:06;13.66;92.94
64961;SHT31;51487;52.266;10.542;2023-06-10T03:28:31;13.56;93.40
64961;SHT31;51487;52.266;10.542;2023-06-10T03:30:57;13.49;93.57
64961;SHT31;51487;52.266;10.542;2023-06-10T03:33:23;13.51;93.68
64961;SHT31;51487;52.266;10.542;2023-06-10T03:35:48;13.46;93.78
64961;SHT31;51487;52.266;10.542;2023-06-10T03:38:14;13.41;93.89
64961;SHT31;51487;52.266;10.542;2023-06-10T03:40:40;13.45;93.73
64961;SHT31;51487;52.266;10.542;2023-06-10T03:43:05;13.49;93.63
64961;SHT31;51487;52.266;10.542;2023-06-10T03:45:31;13.51;93.42
64961;SHT31;51487;52.266;10.542;2023-06-10T03:47:57;13.49;93.51
64961;SHT31;51487;52.266;10.542;2023-06-10T03:50:23;13.58;93.26
64961;SHT31;51487;52.266;10.542;2023-06-10T03:52:50;13.52;93.31
64961;SHT31;51487;52.266;10.542;2023-06-10T03:55:16;13.52;93.44
64961;SHT31;51487;52.266;10.542;2023-06-10T03:57:42;13.52;93.59
64961;SHT31;51487;52.266;10.542;2023-06-10T04:00:08;13.58;93.42
64961;SHT31;51487;52.266;10.542;2023-06-10T04:02:38;13.65;92.92
64961;SHT31;51487;52.266;10.542;2023-06-10T04:05:15;13.65;93.18
64961;SHT31;51487;52.266;10.542;2023-06-10T04:07:42;13.62;93.19
64961;SHT31;51487;52.266;10.542;2023-06-10T04:10:10;13.66;93.15
64961;SHT31;51487;52.266;10.542;2023-06-10T04:12:37;13.79;92.53
64961;SHT31;51487;52.266;10.542;2023-06-10T04:15:04;13.77;92.49
64961;SHT31;51487;52.266;10.542;2023-06-10T04:17:31;13.80;92.39
64961;SHT31;51487;52.266;10.542;2023-06-10T04:19:57;13.79;92.47
64961;SHT31;51487;52.266;10.542;2023-06-10T04:22:23;13.80;92.40
64961;SHT31;51487;52.266;10.542;2023-06-10T04:24:49;13.86;92.11
64961;SHT31;51487;52.266;10.542;2023-06-10T04:27:14;13.89;91.96
64961;SHT31;51487;52.266;10.542;2023-06-10T04:29:40;13.87;92.01
64961;SHT31;51487;52.266;10.542;2023-06-10T04:32:07;14.03;91.79
64961;SHT31;51487;52.266;10.542;2023-06-10T04:34:36;14.10;91.48
64961;SHT31;51487;52.266;10.542;2023-06-10T04:37:04;14.16;91.05
64961;SHT31;51487;52.266;10.542;2023-06-10T04:39:30;14.23;90.87
64961;SHT31;51487;52.266;10.542;2023-06-10T04:41:55;14.24;91.12
64961;SHT31;51487;52.266;10.542;2023-06-10T04:44:21;14.33;90.59
64961;SHT31;51487;52.266;10.542;2023-06-10T04:46:47;14.45;90.12
64961;SHT31;51487;52.266;10.542;2023-06-10T04:49:13;14.60;89.82
64961;SHT31;51487;52.266;10.542;2023-06-10T04:51:42;14.65;89.36
64961;SHT31;51487;52.266;10.542;2023-06-10T04:54:07;14.67;89.62
64961;SHT31;51487;52.266;10.542;2023-06-10T04:56:33;14.71;88.95
64961;SHT31;51487;52.266;10.542;2023-06-10T04:58:59;14.55;89.20
64961;SHT31;51487;52.266;10.542;2023-06-10T05:01:25;14.51;89.44
64961;SHT31;51487;52.266;10.542;2023-06-10T05:03:51;14.52;89.46
64961;SHT31;51487;52.266;10.542;2023-06-10T05:06:17;14.54;89.46
64961;SHT31;51487;52.266;10.542;2023-06-10T05:08:43;14.64;89.38
64961;SHT31;51487;52.266;10.542;2023-06-10T05:11:08;14.78;89.05
64961;SHT31;51487;52.266;10.542;2023-06-10T05:13:34;14.75;88.79
64961;SHT31;51487;52.266;10.542;2023-06-10T05:16:00;14.88;88.29
64961;SHT31;51487;52.266;10.542;2023-06-10T05:18:25;14.82;88.18
64961;SHT31;51487;52.266;10.542;2023-06-10T05:20:51;14.91;87.96
64961;SHT31;51487;52.266;10.542;2023-06-10T05:23:16;14.76;88.38
64961;SHT31;51487;52.266;10.542;2023-06-10T05:25:42;14.76;88.58
64961;SHT31;51487;52.266;10.542;2023-06-10T05:28:08;14.86;88.52
64961;SHT31;51487;52.266;10.542;2023-06-10T05:30:37;14.96;87.99
64961;SHT31;51487;52.266;10.542;2023-06-10T05:33:04;14.68;89.09
64961;SHT31;51487;52.266;10.542;2023-06-10T05:35:30;14.74;89.23
64961;SHT31;51487;52.266;10.542;2023-06-10T05:37:55;14.68;89.17
64961;SHT31;51487;52.266;10.542;2023-06-10T05:40:21;14.84;88.75
64961;SHT31;51487;52.266;10.542;2023-06-10T05:42:47;14.92;88.49
64961;SHT31;51487;52.266;10.542;2023-06-10T05:45:12;14.98;88.36
64961;SHT31;51487;52.266;10.542;2023-06-10T05:47:38;15.07;87.92
64961;SHT31;51487;52.266;10.542;2023-06-10T05:50:04;15.14;87.74
64961;SHT31;51487;52.266;10.542;2023-06-10T05:52:33;15.13;87.62
64961;SHT31;51487;52.266;10.542;2023-06-10T05:54:59;15.18;87.87
64961;SHT31;51487;52.266;10.542;2023-06-10T05:57:25;15.26;87.73
64961;SHT31;51487;52.266;10.542;2023-06-10T05:59:51;15.24;87.45
64961;SHT31;51487;52.266;10.542;2023-06-10T06:02:17;15.24;87.20
64961;SHT31;51487;52.266;10.542;2023-06-10T06:04:42;15.29;87.43
64961;SHT31;51487;52.266;10.542;2023-06-10T06:07:08;15.30;87.63
64961;SHT31;51487;52.266;10.542;2023-06-10T06:09:34;15.19;87.69
64961;SHT31;51487;52.266;10.542;2023-06-10T06:11:59;15.20;87.91
64961;SHT31;51487;52.266;10.542;2023-06-10T06:14:25;15.10;88.22
64961;SHT31;51487;52.266;10.542;2023-06-10T06:16:50;15.18;88.02
64961;SHT31;51487;52.266;10.542;2023-06-10T06:19:16;15.16;88.36
64961;SHT31;51487;52.266;10.542;2023-06-10T06:21:41;15.24;88.52
64961;SHT31;51487;52.266;10.542;2023-06-10T06:24:07;15.42;87.74
64961;SHT31;51487;52.266;10.542;2023-06-10T06:26:32;15.44;87.58
64961;SHT31;51487;52.266;10.542;2023-06-10T06:28:58;15.54;87.35
64961;SHT31;51487;52.266;10.542;2023-06-10T06:31:23;15.82;86.42
64961;SHT31;51487;52.266;10.542;2023-06-10T06:33:49;15.70;86.56
64961;SHT31;51487;52.266;10.542;2023-06-10T06:36:15;15.67;86.82
64961;SHT31;51487;52.266;10.542;2023-06-10T06:38:40;15.77;86.68
64961;SHT31;51487;52.266;10.542;2023-06-10T06:41:06;15.87;85.85
64961;SHT31;51487;52.266;10.542;2023-06-10T06:43:32;15.82;86.00
64961;SHT31;51487;52.266;10.542;2023-06-10T06:45:58;15.87;86.15
64961;SHT31;51487;52.266;10.542;2023-06-10T06:48:24;15.95;85.75
64961;SHT31;51487;52.266;10.542;2023-06-10T06:50:49;15.94;86.07
64961;SHT31;51487;52.266;10.542;2023-06-10T06:53:15;15.95;86.02
64961;SHT31;51487;52.266;10.542;2023-06-10T06:55:40;15.77;86.63
64961;SHT31;51487;52.266;10.542;2023-06-10T06:58:06;15.91;86.52
64961;SHT31;51487;52.266;10.542;2023-06-10T07:00:32;16.01;86.20
64961;SHT31;51487;52.266;10.542;2023-06-10T07:02:58;16.11;86.05
64961;SHT31;51487;52.266;10.542;2023-06-10T07:05:24;16.21;85.96
64961;SHT31;51487;52.266;10.542;2023-06-10T07:07:53;16.39;85.55
64961;SHT31;51487;52.266;10.542;2023-06-10T07:10:24;16.42;85.41
64961;SHT31;51487;52.266;10.542;2023-06-10T07:12:51;16.63;84.75
64961;SHT31;51487;52.266;10.542;2023-06-10T07:15:17;16.70;84.35
64961;SHT31;51487;52.266;10.542;2023-06-10T07:17:43;16.88;84.31
64961;SHT31;51487;52.266;10.542;2023-06-10T07:20:09;16.84;84.00
64961;SHT31;51487;52.266;10.542;2023-06-10T07:22:35;17.04;83.14
64961;SHT31;51487;52.266;10.542;2023-06-10T07:25:01;17.12;82.96
64961;SHT31;51487;52.266;10.542;2023-06-10T07:27:26;17.17;82.96
64961;SHT31;51487;52.266;10.542;2023-06-10T07:29:52;17.31;82.71
64961;SHT31;51487;52.266;10.542;2023-06-10T07:32:19;17.38;82.56
64961;SHT31;51487;52.266;10.542;2023-06-10T07:34:49;17.40;82.50
64961;SHT31;51487;52.266;10.542;2023-06-10T07:37:16;17.39;82.44
64961;SHT31;51487;52.266;10.542;2023-06-10T07:39:41;17.36;82.42
64961;SHT31;51487;52.266;10.542;2023-06-10T07:42:08;17.45;82.51
64961;SHT31;51487;52.266;10.542;2023-06-10T07:44:34;17.43;82.39
64961;SHT31;51487;52.266;10.542;2023-06-10T07:46:59;17.43;82.85
64961;SHT31;51487;52.266;10.542;2023-06-10T07:49:25;17.53;83.02
64961;SHT31;51487;52.266;10.542;2023-06-10T07:51:53;17.72;81.98
64961;SHT31;51487;52.266;10.542;2023-06-10T07:54:19;17.72;81.91
64961;SHT31;51487;52.266;10.542;2023-06-10T07:56:45;17.73;82.12
64961;SHT31;51487;52.266;10.542;2023-06-10T07:59:10;17.82;82.26
64961;SHT31;51487;52.266;10.542;2023-06-10T08:01:35;18.01;82.02
64961;SHT31;51487;52.266;10.542;2023-06-10T08:04:04;18.16;80.98
64961;SHT31;51487;52.266;10.542;2023-06-10T08:06:29;18.18;80.74
64961;SHT31;51487;52.266;10.542;2023-06-10T08:08:55;18.40;80.30
64961;SHT31;51487;52.266;10.542;2023-06-10T08:11:21;18.38;80.41
64961;SHT31;51487;52.266;10.542;2023-06-10T08:13:46;18.55;80.46
64961;SHT31;51487;52.266;10.542;2023-06-10T08:16:12;18.55;80.38
64961;SHT31;51487;52.266;10.542;2023-06-10T08:18:37;18.65;79.57
64961;SHT31;51487;52.266;10.542;2023-06-10T08:21:03;18.61;80.42
64961;SHT31;51487;52.266;10.542;2023-06-10T08:23:28;18.72;80.26
64961;SHT31;51487;52.266;10.542;2023-06-10T08:25:54;18.86;79.71
64961;SHT31;51487;52.266;10.542;2023-06-10T08:28:19;18.99;79.47
64961;SHT31;51487;52.266;10.542;2023-06-10T08:30:45;19.03;79.45
64961;SHT31;51487;52.266;10.542;2023-06-10T08:33:10;19.10;79.25
64961;SHT31;51487;52.266;10.542;2023-06-10T08:35:36;19.31;79.14
64961;SHT31;51487;52.266;10.542;2023-06-10T08:38:01;19.36;78.59
64961;SHT31;51487;52.266;10.542;2023-06-10T08:40:27;19.44;78.56
64961;SHT31;51487;52.266;10.542;2023-06-10T08:43:39;19.64;77.84
64961;SHT31;51487;52.266;10.542;2023-06-10T08:46:09;19.70;77.69
64961;SHT31;51487;52.266;10.542;2023-06-10T08:48:44;19.88;76.78
64961;SHT31;51487;52.266;10.542;2023-06-10T08:51:13;19.86;77.21
64961;SHT31;51487;52.266;10.542;2023-06-10T08:54:01;19.91;77.04
64961;SHT31;51487;52.266;10.542;2023-06-10T08:56:29;19.96;77.29
64961;SHT31;51487;52.266;10.542;2023-06-10T08:58:56;20.13;77.36
64961;SHT31;51487;52.266;10.542;2023-06-10T09:01:24;20.22;77.30
64961;SHT31;51487;52.266;10.542;2023-06-10T09:03:51;20.32;76.76
64961;SHT31;51487;52.266;10.542;2023-06-10T09:06:18;20.37;76.98
64961;SHT31;51487;52.266;10.542;2023-06-10T09:08:44;20.33;76.84
64961;SHT31;51487;52.266;10.542;2023-06-10T09:11:09;20.32;77.03
64961;SHT31;51487;52.266;10.542;2023-06-10T09:13:35;20.22;76.92
64961;SHT31;51487;52.266;10.542;2023-06-10T09:16:01;20.43;76.75
64961;SHT31;51487;52.266;10.542;2023-06-10T09:18:28;20.59;76.47
64961;SHT31;51487;52.266;10.542;2023-06-10T09:20:55;20.73;75.66
64961;SHT31;51487;52.266;10.542;2023-06-10T09:23:21;20.80;75.76
64961;SHT31;51487;52.266;10.542;2023-06-10T09:25:57;20.92;75.44
64961;SHT31;51487;52.266;10.542;2023-06-10T09:28:25;20.90;76.08
64961;SHT31;51487;52.266;10.542;2023-06-10T09:31:03;21.08;75.61
64961;SHT31;51487;52.266;10.542;2023-06-10T09:33:31;21.14;75.00
64961;SHT31;51487;52.266;10.542;2023-06-10T09:35:57;21.34;75.14
64961;SHT31;51487;52.266;10.542;2023-06-10T09:38:34;21.42;73.95
64961;SHT31;51487;52.266;10.542;2023-06-10T09:41:00;21.43;73.76
64961;SHT31;51487;52.266;10.542;2023-06-10T09:43:46;21.46;73.73
64961;SHT31;51487;52.266;10.542;2023-06-10T09:46:19;21.48;74.15
64961;SHT31;51487;52.266;10.542;2023-06-10T09:48:47;21.52;74.23
64961;SHT31;51487;52.266;10.542;2023-06-10T09:51:14;21.53;73.76
64961;SHT31;51487;52.266;10.542;2023-06-10T09:53:40;21.63;73.34
64961;SHT31;51487;52.266;10.542;2023-06-10T09:56:06;21.86;73.33
64961;SHT31;51487;52.266;10.542;2023-06-10T09:58:38;22.10;72.65
64961;SHT31;51487;52.266;10.542;2023-06-10T10:01:14;22.11;71.99
64961;SHT31;51487;52.266;10.542;2023-06-10T10:03:49;22.18;71.51
64961;SHT31;51487;52.266;10.542;2023-06-10T10:06:17;22.25;71.22
64961;SHT31;51487;52.266;10.542;2023-06-10T10:08:46;22.37;71.24
64961;SHT31;51487;52.266;10.542;2023-06-10T10:11:14;22.37;70.89
64961;SHT31;51487;52.266;10.542;2023-06-10T10:13:41;22.38;70.67
64961;SHT31;51487;52.266;10.542;2023-06-10T10:16:13;22.49;70.62
64961;SHT31;51487;52.266;10.542;2023-06-10T10:18:51;22.48;70.81
64961;SHT31;51487;52.266;10.542;2023-06-10T10:21:23;22.59;69.65
64961;SHT31;51487;52.266;10.542;2023-06-10T10:24:07;22.78;69.16
64961;SHT31;51487;52.266;10.542;2023-06-10T10:26:38;22.88;68.51
64961;SHT31;51487;52.266;10.542;2023-06-10T10:29:33;22.78;69.43
64961;SHT31;51487;52.266;10.542;2023-06-10T10:32:01;22.82;69.55
64961;SHT31;51487;52.266;10.542;2023-06-10T10:34:50;22.91;69.66
64961;SHT31;51487;52.266;10.542;2023-06-10T10:37:20;22.98;68.92
64961;SHT31;51487;52.266;10.542;2023-06-10T10:39:45;23.03;68.68
64961;SHT31;51487;52.266;10.542;2023-06-10T10:42:12;23.10;68.58
64961;SHT31;51487;52.266;10.542;2023-06-10T10:44:39;23.27;67.91
64961;SHT31;51487;52.266;10.542;2023-06-10T10:47:08;23.37;67.17
64961;SHT31;51487;52.266;10.542;2023-06-10T10:49:37;23.51;66.77
64961;SHT31;51487;52.266;10.542;2023-06-10T10:52:03;23.57;67.43
64961;SHT31;51487;52.266;10.542;2023-06-10T10:54:34;23.61;67.38
64961;SHT31;51487;52.266;10.542;2023-06-10T11:02:18;23.97;65.97
64961;SHT31;51487;52.266;10.542;2023-06-10T11:04:47;24.11;65.84
64961;SHT31;51487;52.266;10.542;2023-06-10T11:07:13;24.12;66.35
64961;SHT31;51487;52.266;10.542;2023-06-10T11:10:12;24.18;65.66
64961;SHT31;51487;52.266;10.542;2023-06-10T11:15:11;24.42;64.15
64961;SHT31;51487;52.266;10.542;2023-06-10T11:17:37;24.53;63.57
64961;SHT31;51487;52.266;10.542;2023-06-10T11:20:03;24.53;63.71
64961;SHT31;51487;52.266;10.542;2023-06-10T11:22:29;24.49;64.33
64961;SHT31;51487;52.266;10.542;2023-06-10T11:24:54;24.48;64.03
64961;SHT31;51487;52.266;10.542;2023-06-10T11:27:23;24.59;63.99
64961;SHT31;51487;52.266;10.542;2023-06-10T11:32:33;24.93;64.04
64961;SHT31;51487;52.266;10.542;2023-06-10T11:35:04;25.04;63.22
64961;SHT31;51487;52.266;10.542;2023-06-10T11:37:30;25.04;62.87
64961;SHT31;51487;52.266;10.542;2023-06-10T11:39:56;25.21;63.17
64961;SHT31;51487;52.266;10.542;2023-06-10T11:42:23;25.32;62.43
64961;SHT31;51487;52.266;10.542;2023-06-10T11:44:54;25.38;61.96
64961;SHT31;51487;52.266;10.542;2023-06-10T11:47:20;25.34;63.36
64961;SHT31;51487;52.266;10.542;2023-06-10T11:49:57;25.35;62.19
64961;SHT31;51487;52.266;10.542;2023-06-10T11:52:27;25.45;61.97
64961;SHT31;51487;52.266;10.542;2023-06-10T11:54:54;25.55;61.28
64961;SHT31;51487;52.266;10.542;2023-06-10T11:57:20;25.58;61.00
64961;SHT31;51487;52.266;10.542;2023-06-10T11:59:46;25.57;61.23
64961;SHT31;51487;52.266;10.542;2023-06-10T12:02:16;25.52;61.94
64961;SHT31;51487;52.266;10.542;2023-06-10T12:04:42;25.65;61.34
64961;SHT31;51487;52.266;10.542;2023-06-10T12:07:08;25.65;61.36
64961;SHT31;51487;52.266;10.542;2023-06-10T12:09:33;25.86;59.35
64961;SHT31;51487;52.266;10.542;2023-06-10T12:12:05;25.90;60.01
64961;SHT31;51487;52.266;10.542;2023-06-10T12:14:55;25.90;60.23
64961;SHT31;51487;52.266;10.542;2023-06-10T12:19:58;25.94;60.62
64961;SHT31;51487;52.266;10.542;2023-06-10T12:22:25;26.12;59.66
64961;SHT31;51487;52.266;10.542;2023-06-10T12:24:59;26.30;60.44
64961;SHT31;51487;52.266;10.542;2023-06-10T12:27:25;26.38;59.56
64961;SHT31;51487;52.266;10.542;2023-06-10T12:29:52;26.33;59.41
64961;SHT31;51487;52.266;10.542;2023-06-10T12:32:19;26.55;58.02
64961;SHT31;51487;52.266;10.542;2023-06-10T12:34:45;26.55;58.21
64961;SHT31;51487;52.266;10.542;2023-06-10T12:37:12;26.57;58.31
64961;SHT31;51487;52.266;10.542;2023-06-10T12:39:42;26.62;58.01
64961;SHT31;51487;52.266;10.542;2023-06-10T12:42:12;26.58;57.59
64961;SHT31;51487;52.266;10.542;2023-06-10T12:44:40;26.68;57.21
64961;SHT31;51487;52.266;10.542;2023-06-10T12:47:10;26.69;57.42
64961;SHT31;51487;52.266;10.542;2023-06-10T12:49:39;26.77;58.47
64961;SHT31;51487;52.266;10.542;2023-06-10T12:52:06;26.79;58.10
64961;SHT31;51487;52.266;10.542;2023-06-10T12:54:32;26.89;57.03
64961;SHT31;51487;52.266;10.542;2023-06-10T12:56:58;27.02;56.61
64961;SHT31;51487;52.266;10.542;2023-06-10T12:59:23;27.12;56.15
64961;SHT31;51487;52.266;10.542;2023-06-10T13:01:53;27.15;56.04
64961;SHT31;51487;52.266;10.542;2023-06-10T13:04:19;27.20;55.94
64961;SHT31;51487;52.266;10.542;2023-06-10T13:06:46;27.26;56.32
64961;SHT31;51487;52.266;10.542;2023-06-10T13:09:13;27.33;56.97
64961;SHT31;51487;52.266;10.542;2023-06-10T13:11:39;27.40;55.95
64961;SHT31;51487;52.266;10.542;2023-06-10T13:14:05;27.37;55.53
64961;SHT31;51487;52.266;10.542;2023-06-10T13:16:32;27.30;55.14
64961;SHT31;51487;52.266;10.542;2023-06-10T13:18:58;27.36;56.23
64961;SHT31;51487;52.266;10.542;2023-06-10T13:21:24;27.47;56.19
64961;SHT31;51487;52.266;10.542;2023-06-10T13:23:51;27.68;55.15
64961;SHT31;51487;52.266;10.542;2023-06-10T13:26:17;27.73;55.16
64961;SHT31;51487;52.266;10.542;2023-06-10T13:28:43;27.83;53.45
64961;SHT31;51487;52.266;10.542;2023-06-10T13:31:10;27.81;53.11
64961;SHT31;51487;52.266;10.542;2023-06-10T13:33:36;27.93;51.66
64961;SHT31;51487;52.266;10.542;2023-06-10T13:36:02;28.01;52.61
64961;SHT31;51487;52.266;10.542;2023-06-10T13:38:27;28.08;52.23
64961;SHT31;51487;52.266;10.542;2023-06-10T13:40:53;28.05;52.10
64961;SHT31;51487;52.266;10.542;2023-06-10T13:43:18;28.26;51.52
64961;SHT31;51487;52.266;10.542;2023-06-10T13:45:44;28.28;51.30
64961;SHT31;51487;52.266;10.542;2023-06-10T13:48:10;28.26;51.65
64961;SHT31;51487;52.266;10.542;2023-06-10T13:50:37;28.55;51.25
64961;SHT31;51487;52.266;10.542;2023-06-10T13:53:03;28.57;50.91
64961;SHT31;51487;52.266;10.542;2023-06-10T13:55:29;28.56;51.71
64961;SHT31;51487;52.266;10.542;2023-06-10T13:57:55;28.35;52.86
64961;SHT31;51487;52.266;10.542;2023-06-10T14:00:20;28.45;53.41
64961;SHT31;51487;52.266;10.542;2023-06-10T14:02:46;28.53;53.35
64961;SHT31;51487;52.266;10.542;2023-06-10T14:05:12;28.52;52.63
64961;SHT31;51487;52.266;10.542;2023-06-10T14:07:37;28.11;52.82
64961;SHT31;51487;52.266;10.542;2023-06-10T14:10:03;27.90;53.39
64961;SHT31;51487;52.266;10.542;2023-06-10T14:12:29;27.83;53.11
64961;SHT31;51487;52.266;10.542;2023-06-10T14:14:55;27.68;54.15
64961;SHT31;51487;52.266;10.542;2023-06-10T14:17:20;27.47;53.46
64961;SHT31;51487;52.266;10.542;2023-06-10T14:19:46;27.58;53.48
64961;SHT31;51487;52.266;10.542;2023-06-10T14:22:11;27.83;52.09
64961;SHT31;51487;52.266;10.542;2023-06-10T14:24:37;27.80;52.20
64961;SHT31;51487;52.266;10.542;2023-06-10T14:27:03;27.93;51.87
64961;SHT31;51487;52.266;10.542;2023-06-10T14:29:28;28.21;51.21
64961;SHT31;51487;52.266;10.542;2023-06-10T14:31:55;28.28;52.12
64961;SHT31;51487;52.266;10.542;2023-06-10T14:34:20;28.69;51.31
64961;SHT31;51487;52.266;10.542;2023-06-10T14:36:48;28.89;50.77
64961;SHT31;51487;52.266;10.542;2023-06-10T14:39:14;28.73;51.00
64961;SHT31;51487;52.266;10.542;2023-06-10T14:41:40;28.67;51.68
64961;SHT31;51487;52.266;10.542;2023-06-10T14:44:05;28.77;49.92
64961;SHT31;51487;52.266;10.542;2023-06-10T14:46:31;28.45;50.29
64961;SHT31;51487;52.266;10.542;2023-06-10T14:48:56;28.62;48.87
64961;SHT31;51487;52.266;10.542;2023-06-10T14:51:24;28.49;49.90
64961;SHT31;51487;52.266;10.542;2023-06-10T14:53:49;28.87;48.73
64961;SHT31;51487;52.266;10.542;2023-06-10T14:56:16;29.03;49.65
64961;SHT31;51487;52.266;10.542;2023-06-10T14:58:41;29.30;49.22
64961;SHT31;51487;52.266;10.542;2023-06-10T15:01:07;29.37;49.06
64961;SHT31;51487;52.266;10.542;2023-06-10T15:03:32;29.63;47.80
64961;SHT31;51487;52.266;10.542;2023-06-10T15:05:57;29.85;48.35
64961;SHT31;51487;52.266;10.542;2023-06-10T15:08:23;30.02;46.54
64961;SHT31;51487;52.266;10.542;2023-06-10T15:10:48;29.82;46.91
64961;SHT31;51487;52.266;10.542;2023-06-10T15:13:14;29.34;46.44
64961;SHT31;51487;52.266;10.542;2023-06-10T15:15:39;29.79;46.64
64961;SHT31;51487;52.266;10.542;2023-06-10T15:18:05;30.07;47.19
64961;SHT31;51487;52.266;10.542;2023-06-10T15:20:30;29.72;47.87
64961;SHT31;51487;52.266;10.542;2023-06-10T15:22:56;29.34;48.17
64961;SHT31;51487;52.266;10.542;2023-06-10T15:25:22;29.03;48.19
64961;SHT31;51487;52.266;10.542;2023-06-10T15:27:47;29.00;48.93
64961;SHT31;51487;52.266;10.542;2023-06-10T15:30:13;29.42;47.94
64961;SHT31;51487;52.266;10.542;2023-06-10T15:32:38;29.49;47.60
64961;SHT31;51487;52.266;10.542;2023-06-10T15:35:04;29.78;46.55